sensor_id;sensor_type;location;lat;lon;timestamp;temperature;humidity
44851;DHT22;30583;48.714;9.386;2022-12-18T00:01:27;-3272.30;73.70
44851;DHT22;30583;48.714;9.386;2022-12-18T00:03:54;-3272.20;73.80
44851;DHT22;30583;48.714;9.386;2022-12-18T00:06:21;-3272.00;74.00
44851;DHT22;30583;48.714;9.386;2022-12-18T00:08:47;-3271.80;74.10
44851;DHT22;30583;48.714;9.386;2022-12-18T00:11:15;-3272.20;73.90
44851;DHT22;30583;48.714;9.386;2022-12-18T00:13:42;-3272.20;73.50
44851;DHT22;30583;48.714;9.386;2022-12-18T00:16:11;-3272.10;73.30
44851;DHT22;30583;48.714;9.386;2022-12-18T00:18:36;-3272.30;73.10
44851;DHT22;30583;48.714;9.386;2022-12-18T00:21:04;-3272.20;72.70
44851;DHT22;30583;48.714;9.386;2022-12-18T00:23:30;-3272.20;73.10
44851;DHT22;30583;48.714;9.386;2022-12-18T00:26:05;-3272.10;73.70
44851;DHT22;30583;48.714;9.386;2022-12-18T00:28:31;-3271.70;74.40
44851;DHT22;30583;48.714;9.386;2022-12-18T00:31:05;-3272.10;74.30
44851;DHT22;30583;48.714;9.386;2022-12-18T00:33:31;-3271.40;75.50
44851;DHT22;30583;48.714;9.386;2022-12-18T00:36:05;-3271.00;77.70
44851;DHT22;30583;48.714;9.386;2022-12-18T00:38:31;-3271.10;78.00
44851;DHT22;30583;48.714;9.386;2022-12-18T00:40:56;-3271.20;77.20
44851;DHT22;30583;48.714;9.386;2022-12-18T00:43:22;-3270.90;77.70
44851;DHT22;30583;48.714;9.386;2022-12-18T00:45:47;-3271.20;76.90
44851;DHT22;30583;48.714;9.386;2022-12-18T00:48:13;-3270.60;77.30
44851;DHT22;30583;48.714;9.386;2022-12-18T00:50:39;-3270.30;78.50
44851;DHT22;30583;48.714;9.386;2022-12-18T00:53:04;-3270.90;78.70
44851;DHT22;30583;48.714;9.386;2022-12-18T00:55:30;-3270.90;78.10
44851;DHT22;30583;48.714;9.386;2022-12-18T00:57:55;-3270.30;78.00
44851;DHT22;30583;48.714;9.386;2022-12-18T01:00:21;-3270.20;80.60
44851;DHT22;30583;48.714;9.386;2022-12-18T01:02:47;-3270.50;79.00
44851;DHT22;30583;48.714;9.386;2022-12-18T01:05:13;-3270.50;78.10
44851;DHT22;30583;48.714;9.386;2022-12-18T01:07:39;-3270.60;78.20
44851;DHT22;30583;48.714;9.386;2022-12-18T01:10:06;-3270.80;78.00
44851;DHT22;30583;48.714;9.386;2022-12-18T01:12:32;-3270.30;77.60
44851;DHT22;30583;48.714;9.386;2022-12-18T01:14:58;-3270.50;78.70
44851;DHT22;30583;48.714;9.386;2022-12-18T01:17:24;-3270.80;77.60
44851;DHT22;30583;48.714;9.386;2022-12-18T01:19:49;-3270.60;76.90
44851;DHT22;30583;48.714;9.386;2022-12-18T01:22:15;-3269.90;77.70
44851;DHT22;30583;48.714;9.386;2022-12-18T01:24:40;-3269.50;79.80
44851;DHT22;30583;48.714;9.386;2022-12-18T01:27:06;-3269.70;79.60
44851;DHT22;30583;48.714;9.386;2022-12-18T01:29:31;-3269.80;79.50
44851;DHT22;30583;48.714;9.386;2022-12-18T01:31:57;-3269.60;78.70
44851;DHT22;30583;48.714;9.386;2022-12-18T01:34:24;-3270.00;79.00
44851;DHT22;30583;48.714;9.386;2022-12-18T01:36:49;-3270.40;76.90
44851;DHT22;30583;48.714;9.386;2022-12-18T01:39:18;-3269.70;77.10
44851;DHT22;30583;48.714;9.386;2022-12-18T01:41:44;-3270.00;78.50
44851;DHT22;30583;48.714;9.386;2022-12-18T01:49:50;-3270.30;78.30
44851;DHT22;30583;48.714;9.386;2022-12-18T01:52:16;-3270.00;77.90
44851;DHT22;30583;48.714;9.386;2022-12-18T01:54:43;-3270.30;78.20
44851;DHT22;30583;48.714;9.386;2022-12-18T01:57:09;-3269.80;78.50
44851;DHT22;30583;48.714;9.386;2022-12-18T01:59:35;-3270.10;78.10
44851;DHT22;30583;48.714;9.386;2022-12-18T02:02:02;-3270.20;77.80
44851;DHT22;30583;48.714;9.386;2022-12-18T02:04:28;-3269.80;78.20
44851;DHT22;30583;48.714;9.386;2022-12-18T02:07:17;-3270.10;77.10
44851;DHT22;30583;48.714;9.386;2022-12-18T02:09:59;-3270.00;77.00
44851;DHT22;30583;48.714;9.386;2022-12-18T02:12:34;-3270.00;77.70
44851;DHT22;30583;48.714;9.386;2022-12-18T02:15:06;-3270.00;76.70
44851;DHT22;30583;48.714;9.386;2022-12-18T02:17:40;-3269.90;77.90
44851;DHT22;30583;48.714;9.386;2022-12-18T02:20:14;-3269.80;76.80
44851;DHT22;30583;48.714;9.386;2022-12-18T02:22:48;-3270.00;77.80
44851;DHT22;30583;48.714;9.386;2022-12-18T02:27:59;-3270.10;76.90
44851;DHT22;30583;48.714;9.386;2022-12-18T02:30:27;-3269.60;76.20
44851;DHT22;30583;48.714;9.386;2022-12-18T02:32:55;-3269.70;76.80
44851;DHT22;30583;48.714;9.386;2022-12-18T02:35:25;-3270.10;75.90
44851;DHT22;30583;48.714;9.386;2022-12-18T02:37:51;-3269.40;76.10
44851;DHT22;30583;48.714;9.386;2022-12-18T02:40:19;-3269.80;76.60
44851;DHT22;30583;48.714;9.386;2022-12-18T02:42:46;-3269.90;75.40
44851;DHT22;30583;48.714;9.386;2022-12-18T02:45:11;-3269.90;74.70
44851;DHT22;30583;48.714;9.386;2022-12-18T02:47:41;-3269.70;74.60
44851;DHT22;30583;48.714;9.386;2022-12-18T02:50:37;-3269.90;75.00
44851;DHT22;30583;48.714;9.386;2022-12-18T02:53:11;-3269.60;75.10
44851;DHT22;30583;48.714;9.386;2022-12-18T02:58:18;-3269.90;75.00
44851;DHT22;30583;48.714;9.386;2022-12-18T03:03:36;-3269.50;74.60
44851;DHT22;30583;48.714;9.386;2022-12-18T03:06:35;-3269.80;75.30
44851;DHT22;30583;48.714;9.386;2022-12-18T03:09:07;-3269.90;74.60
44851;DHT22;30583;48.714;9.386;2022-12-18T03:11:36;-3269.90;74.60
44851;DHT22;30583;48.714;9.386;2022-12-18T03:14:23;-3269.40;74.80
44851;DHT22;30583;48.714;9.386;2022-12-18T03:16:53;-3269.30;76.30
44851;DHT22;30583;48.714;9.386;2022-12-18T03:19:22;-3269.50;75.70
44851;DHT22;30583;48.714;9.386;2022-12-18T03:21:54;-3269.70;74.50
44851;DHT22;30583;48.714;9.386;2022-12-18T03:24:21;-3269.50;74.60
44851;DHT22;30583;48.714;9.386;2022-12-18T03:26:52;-3268.90;74.50
44851;DHT22;30583;48.714;9.386;2022-12-18T03:29:23;-3268.90;76.00
44851;DHT22;30583;48.714;9.386;2022-12-18T03:31:58;-3269.30;74.70
44851;DHT22;30583;48.714;9.386;2022-12-18T03:34:30;-3269.70;74.00
44851;DHT22;30583;48.714;9.386;2022-12-18T03:36:57;-3269.50;73.30
44851;DHT22;30583;48.714;9.386;2022-12-18T03:39:23;-3269.30;74.10
44851;DHT22;30583;48.714;9.386;2022-12-18T03:42:01;-3269.70;73.60
44851;DHT22;30583;48.714;9.386;2022-12-18T03:47:37;-3269.80;72.00
44851;DHT22;30583;48.714;9.386;2022-12-18T03:50:13;-3269.90;72.00
44851;DHT22;30583;48.714;9.386;2022-12-18T03:55:31;-3269.70;72.40
44851;DHT22;30583;48.714;9.386;2022-12-18T03:57:59;-3269.30;72.50
44851;DHT22;30583;48.714;9.386;2022-12-18T04:00:27;-3269.50;72.60
44851;DHT22;30583;48.714;9.386;2022-12-18T04:02:55;-3269.80;72.20
44851;DHT22;30583;48.714;9.386;2022-12-18T04:05:22;-3269.30;72.40
44851;DHT22;30583;48.714;9.386;2022-12-18T04:07:51;-3269.40;73.10
44851;DHT22;30583;48.714;9.386;2022-12-18T04:10:18;-3269.50;72.60
44851;DHT22;30583;48.714;9.386;2022-12-18T04:12:43;-3269.10;72.30
44851;DHT22;30583;48.714;9.386;2022-12-18T04:15:10;-3269.20;72.70
44851;DHT22;30583;48.714;9.386;2022-12-18T04:17:37;-3269.30;72.20
44851;DHT22;30583;48.714;9.386;2022-12-18T04:20:04;-3269.40;72.20
44851;DHT22;30583;48.714;9.386;2022-12-18T04:22:29;-3269.10;72.10
44851;DHT22;30583;48.714;9.386;2022-12-18T04:24:55;-3269.20;72.10
44851;DHT22;30583;48.714;9.386;2022-12-18T04:27:21;-3269.30;71.40
44851;DHT22;30583;48.714;9.386;2022-12-18T04:29:46;-3268.50;72.70
44851;DHT22;30583;48.714;9.386;2022-12-18T04:32:12;-3269.00;73.40
44851;DHT22;30583;48.714;9.386;2022-12-18T04:34:37;-3269.00;73.00
44851;DHT22;30583;48.714;9.386;2022-12-18T04:37:03;-3268.60;72.80
44851;DHT22;30583;48.714;9.386;2022-12-18T04:39:28;-3269.20;72.90
44851;DHT22;30583;48.714;9.386;2022-12-18T04:41:54;-3269.50;71.90
44851;DHT22;30583;48.714;9.386;2022-12-18T04:44:19;-3269.50;71.90
44851;DHT22;30583;48.714;9.386;2022-12-18T04:46:45;-3269.50;70.80
44851;DHT22;30583;48.714;9.386;2022-12-18T04:49:10;-3269.70;70.60
44851;DHT22;30583;48.714;9.386;2022-12-18T04:51:36;-3270.00;69.90
44851;DHT22;30583;48.714;9.386;2022-12-18T04:54:02;-3269.10;69.70
44851;DHT22;30583;48.714;9.386;2022-12-18T04:56:28;-3268.50;71.90
44851;DHT22;30583;48.714;9.386;2022-12-18T04:58:53;-3269.00;72.90
44851;DHT22;30583;48.714;9.386;2022-12-18T05:01:19;-3268.80;71.90
44851;DHT22;30583;48.714;9.386;2022-12-18T05:03:45;-3268.40;73.10
44851;DHT22;30583;48.714;9.386;2022-12-18T05:06:11;-3268.80;73.00
44851;DHT22;30583;48.714;9.386;2022-12-18T05:08:36;-3268.40;72.10
44851;DHT22;30583;48.714;9.386;2022-12-18T05:11:04;-3267.90;73.80
44851;DHT22;30583;48.714;9.386;2022-12-18T05:13:31;-3268.10;73.40
44851;DHT22;30583;48.714;9.386;2022-12-18T05:15:57;-3267.90;73.90
44851;DHT22;30583;48.714;9.386;2022-12-18T05:18:23;-3268.60;73.40
44851;DHT22;30583;48.714;9.386;2022-12-18T05:20:50;-3268.20;72.00
44851;DHT22;30583;48.714;9.386;2022-12-18T05:23:16;-3268.60;72.10
44851;DHT22;30583;48.714;9.386;2022-12-18T05:25:42;-3267.80;72.20
44851;DHT22;30583;48.714;9.386;2022-12-18T05:28:07;-3268.40;73.50
44851;DHT22;30583;48.714;9.386;2022-12-18T05:30:33;-3268.40;71.10
44851;DHT22;30583;48.714;9.386;2022-12-18T05:32:58;-3268.50;71.70
44851;DHT22;30583;48.714;9.386;2022-12-18T05:35:24;-3268.90;71.60
44851;DHT22;30583;48.714;9.386;2022-12-18T05:37:50;-3268.50;69.90
44851;DHT22;30583;48.714;9.386;2022-12-18T05:40:15;-3268.30;71.20
44851;DHT22;30583;48.714;9.386;2022-12-18T05:42:41;-3268.40;71.90
44851;DHT22;30583;48.714;9.386;2022-12-18T05:45:07;-3268.40;71.30
44851;DHT22;30583;48.714;9.386;2022-12-18T05:47:32;-3268.30;72.00
44851;DHT22;30583;48.714;9.386;2022-12-18T05:49:58;-3268.80;71.60
44851;DHT22;30583;48.714;9.386;2022-12-18T05:52:24;-3268.90;70.60
44851;DHT22;30583;48.714;9.386;2022-12-18T05:54:49;-3269.00;69.80
44851;DHT22;30583;48.714;9.386;2022-12-18T05:57:15;-3268.10;70.10
44851;DHT22;30583;48.714;9.386;2022-12-18T05:59:41;-3268.30;71.40
44851;DHT22;30583;48.714;9.386;2022-12-18T06:02:06;-3268.50;70.30
44851;DHT22;30583;48.714;9.386;2022-12-18T06:04:32;-3269.00;70.30
44851;DHT22;30583;48.714;9.386;2022-12-18T06:06:58;-3269.20;68.80
44851;DHT22;30583;48.714;9.386;2022-12-18T06:09:23;-3269.10;68.80
44851;DHT22;30583;48.714;9.386;2022-12-18T06:11:51;-3268.70;69.50
44851;DHT22;30583;48.714;9.386;2022-12-18T06:14:17;-3268.40;69.60
44851;DHT22;30583;48.714;9.386;2022-12-18T06:16:42;-3268.20;71.30
44851;DHT22;30583;48.714;9.386;2022-12-18T06:19:14;-3267.80;71.10
44851;DHT22;30583;48.714;9.386;2022-12-18T06:21:40;-3268.10;72.00
44851;DHT22;30583;48.714;9.386;2022-12-18T06:24:06;-3268.00;70.90
44851;DHT22;30583;48.714;9.386;2022-12-18T06:26:31;-3268.50;70.50
44851;DHT22;30583;48.714;9.386;2022-12-18T06:28:57;-3268.60;69.50
44851;DHT22;30583;48.714;9.386;2022-12-18T06:31:23;-3268.50;69.50
44851;DHT22;30583;48.714;9.386;2022-12-18T06:33:48;-3268.70;69.40
44851;DHT22;30583;48.714;9.386;2022-12-18T06:36:14;-3268.40;69.20
44851;DHT22;30583;48.714;9.386;2022-12-18T06:38:41;-3268.50;69.30
44851;DHT22;30583;48.714;9.386;2022-12-18T06:41:09;-3268.50;69.20
44851;DHT22;30583;48.714;9.386;2022-12-18T06:43:35;-3268.50;69.30
44851;DHT22;30583;48.714;9.386;2022-12-18T06:46:02;-3268.10;70.70
44851;DHT22;30583;48.714;9.386;2022-12-18T06:48:28;-3268.50;70.40
44851;DHT22;30583;48.714;9.386;2022-12-18T06:50:54;-3268.40;69.20
44851;DHT22;30583;48.714;9.386;2022-12-18T06:53:20;-3268.40;69.60
44851;DHT22;30583;48.714;9.386;2022-12-18T06:55:45;-3268.50;71.90
44851;DHT22;30583;48.714;9.386;2022-12-18T06:58:11;-3270.00;78.00
44851;DHT22;30583;48.714;9.386;2022-12-18T07:00:37;-3269.80;72.00
44851;DHT22;30583;48.714;9.386;2022-12-18T07:03:02;-3270.10;70.40
44851;DHT22;30583;48.714;9.386;2022-12-18T07:05:28;-3269.20;68.00
44851;DHT22;30583;48.714;9.386;2022-12-18T07:07:53;-3268.50;68.50
44851;DHT22;30583;48.714;9.386;2022-12-18T07:10:19;-3267.90;70.60
44851;DHT22;30583;48.714;9.386;2022-12-18T07:12:45;-3267.80;71.60
44851;DHT22;30583;48.714;9.386;2022-12-18T07:15:11;-3267.90;71.20
44851;DHT22;30583;48.714;9.386;2022-12-18T07:17:36;-3268.00;71.20
44851;DHT22;30583;48.714;9.386;2022-12-18T07:20:03;-3267.80;70.70
44851;DHT22;30583;48.714;9.386;2022-12-18T07:22:29;-3268.00;71.20
44851;DHT22;30583;48.714;9.386;2022-12-18T07:24:54;-3268.40;69.90
44851;DHT22;30583;48.714;9.386;2022-12-18T07:27:20;-3268.60;69.70
44851;DHT22;30583;48.714;9.386;2022-12-18T07:29:46;-3268.50;69.40
44851;DHT22;30583;48.714;9.386;2022-12-18T07:32:12;-3268.70;68.50
44851;DHT22;30583;48.714;9.386;2022-12-18T07:34:37;-3268.30;68.70
44851;DHT22;30583;48.714;9.386;2022-12-18T07:37:03;-3268.60;69.50
44851;DHT22;30583;48.714;9.386;2022-12-18T07:39:28;-3268.50;68.30
44851;DHT22;30583;48.714;9.386;2022-12-18T07:41:54;-3268.70;68.70
44851;DHT22;30583;48.714;9.386;2022-12-18T07:44:38;-3268.10;70.00
44851;DHT22;30583;48.714;9.386;2022-12-18T07:47:04;-3268.60;69.60
44851;DHT22;30583;48.714;9.386;2022-12-18T07:49:30;-3268.60;68.60
44851;DHT22;30583;48.714;9.386;2022-12-18T07:51:56;-3267.90;69.70
44851;DHT22;30583;48.714;9.386;2022-12-18T07:54:23;-3268.00;70.80
44851;DHT22;30583;48.714;9.386;2022-12-18T07:56:49;-3268.10;69.60
44851;DHT22;30583;48.714;9.386;2022-12-18T07:59:14;-3268.00;69.50
44851;DHT22;30583;48.714;9.386;2022-12-18T08:01:40;-3267.80;69.80
44851;DHT22;30583;48.714;9.386;2022-12-18T08:04:05;-3267.50;70.50
44851;DHT22;30583;48.714;9.386;2022-12-18T08:06:31;-3268.00;70.30
44851;DHT22;30583;48.714;9.386;2022-12-18T08:08:57;-3267.90;70.00
44851;DHT22;30583;48.714;9.386;2022-12-18T08:11:24;-3267.90;70.30
44851;DHT22;30583;48.714;9.386;2022-12-18T08:13:51;-3268.30;69.70
44851;DHT22;30583;48.714;9.386;2022-12-18T08:16:17;-3268.00;70.50
44851;DHT22;30583;48.714;9.386;2022-12-18T08:18:42;-3268.50;69.40
44851;DHT22;30583;48.714;9.386;2022-12-18T08:21:16;-3268.60;69.60
44851;DHT22;30583;48.714;9.386;2022-12-18T08:23:42;-3268.50;70.10
44851;DHT22;30583;48.714;9.386;2022-12-18T08:26:09;-3268.60;69.40
44851;DHT22;30583;48.714;9.386;2022-12-18T08:28:35;-3268.40;69.20
44851;DHT22;30583;48.714;9.386;2022-12-18T08:31:00;-3268.70;69.60
44851;DHT22;30583;48.714;9.386;2022-12-18T08:33:26;-3268.30;70.20
44851;DHT22;30583;48.714;9.386;2022-12-18T08:35:52;-3268.40;70.40
44851;DHT22;30583;48.714;9.386;2022-12-18T08:38:18;-3267.90;70.50
44851;DHT22;30583;48.714;9.386;2022-12-18T08:40:44;-3268.60;70.50
44851;DHT22;30583;48.714;9.386;2022-12-18T08:43:10;-3268.50;69.60
44851;DHT22;30583;48.714;9.386;2022-12-18T08:45:54;-3268.60;70.50
44851;DHT22;30583;48.714;9.386;2022-12-18T08:48:21;-3268.80;70.50
44851;DHT22;30583;48.714;9.386;2022-12-18T08:51:07;-3268.50;70.30
44851;DHT22;30583;48.714;9.386;2022-12-18T08:53:35;-3268.40;69.90
44851;DHT22;30583;48.714;9.386;2022-12-18T08:56:01;-3268.30;70.10
44851;DHT22;30583;48.714;9.386;2022-12-18T08:58:26;-3268.30;71.10
44851;DHT22;30583;48.714;9.386;2022-12-18T09:00:52;-3268.30;70.60
44851;DHT22;30583;48.714;9.386;2022-12-18T09:03:18;-3268.50;71.00
44851;DHT22;30583;48.714;9.386;2022-12-18T09:05:45;-3268.60;70.40
44851;DHT22;30583;48.714;9.386;2022-12-18T09:08:12;-3268.80;70.30
44851;DHT22;30583;48.714;9.386;2022-12-18T09:10:48;-3268.20;71.40
44851;DHT22;30583;48.714;9.386;2022-12-18T09:13:16;-3268.80;71.50
44851;DHT22;30583;48.714;9.386;2022-12-18T09:15:43;-3269.00;70.40
44851;DHT22;30583;48.714;9.386;2022-12-18T09:18:11;-3269.20;70.00
44851;DHT22;30583;48.714;9.386;2022-12-18T09:20:37;-3269.00;69.70
44851;DHT22;30583;48.714;9.386;2022-12-18T09:23:04;-3269.30;69.70
44851;DHT22;30583;48.714;9.386;2022-12-18T09:25:30;-3269.30;69.60
44851;DHT22;30583;48.714;9.386;2022-12-18T09:28:02;-3269.40;69.90
44851;DHT22;30583;48.714;9.386;2022-12-18T09:30:27;-3269.10;69.20
44851;DHT22;30583;48.714;9.386;2022-12-18T09:32:53;-3268.90;70.80
44851;DHT22;30583;48.714;9.386;2022-12-18T09:35:18;-3269.50;69.90
44851;DHT22;30583;48.714;9.386;2022-12-18T09:37:44;-3269.60;69.70
44851;DHT22;30583;48.714;9.386;2022-12-18T09:40:18;-3269.50;69.70
44851;DHT22;30583;48.714;9.386;2022-12-18T09:42:48;-3270.00;69.80
44851;DHT22;30583;48.714;9.386;2022-12-18T09:45:16;-3270.00;69.10
44851;DHT22;30583;48.714;9.386;2022-12-18T09:47:43;-3270.10;69.50
44851;DHT22;30583;48.714;9.386;2022-12-18T09:50:33;-3270.40;68.80
44851;DHT22;30583;48.714;9.386;2022-12-18T09:53:04;-3270.50;67.60
44851;DHT22;30583;48.714;9.386;2022-12-18T09:55:37;-3270.20;68.50
44851;DHT22;30583;48.714;9.386;2022-12-18T09:58:18;-3270.60;68.40
44851;DHT22;30583;48.714;9.386;2022-12-18T10:00:45;-3271.20;67.50
44851;DHT22;30583;48.714;9.386;2022-12-18T10:03:15;-3270.90;67.80
44851;DHT22;30583;48.714;9.386;2022-12-18T10:06:07;-3271.30;67.40
44851;DHT22;30583;48.714;9.386;2022-12-18T10:14:07;5.00;50.80
44851;DHT22;30583;48.714;9.386;2022-12-18T10:22:24;-3273.90;62.60
44851;DHT22;30583;48.714;9.386;2022-12-18T10:27:29;-3275.30;65.30
44851;DHT22;30583;48.714;9.386;2022-12-18T10:29:55;-3275.60;58.50
44851;DHT22;30583;48.714;9.386;2022-12-18T10:32:27;-3275.70;56.80
44851;DHT22;30583;48.714;9.386;2022-12-18T10:34:55;-3275.90;55.90
44851;DHT22;30583;48.714;9.386;2022-12-18T10:37:24;-3275.50;55.90
44851;DHT22;30583;48.714;9.386;2022-12-18T10:42:34;-3276.10;56.70
44851;DHT22;30583;48.714;9.386;2022-12-18T10:45:20;-3276.30;55.20
44851;DHT22;30583;48.714;9.386;2022-12-18T10:47:47;-3276.20;55.50
44851;DHT22;30583;48.714;9.386;2022-12-18T10:50:34;-3276.30;55.90
44851;DHT22;30583;48.714;9.386;2022-12-18T10:53:01;-3276.70;55.30
44851;DHT22;30583;48.714;9.386;2022-12-18T10:55:35;0.00;54.80
44851;DHT22;30583;48.714;9.386;2022-12-18T11:01:10;-3276.30;55.90
44851;DHT22;30583;48.714;9.386;2022-12-18T11:06:14;-3276.50;56.20
44851;DHT22;30583;48.714;9.386;2022-12-18T11:08:43;-3276.10;57.40
44851;DHT22;30583;48.714;9.386;2022-12-18T11:11:22;-3276.00;57.50
44851;DHT22;30583;48.714;9.386;2022-12-18T11:14:16;5.40;79.50
44851;DHT22;30583;48.714;9.386;2022-12-18T11:16:46;0.40;52.80
44851;DHT22;30583;48.714;9.386;2022-12-18T11:19:38;-3276.00;57.00
44851;DHT22;30583;48.714;9.386;2022-12-18T11:22:24;-3276.00;58.70
44851;DHT22;30583;48.714;9.386;2022-12-18T11:25:06;-3275.50;61.30
44851;DHT22;30583;48.714;9.386;2022-12-18T11:27:32;-3275.70;60.40
44851;DHT22;30583;48.714;9.386;2022-12-18T11:30:20;-3275.80;61.00
44851;DHT22;30583;48.714;9.386;2022-12-18T11:32:54;-3276.20;60.20
44851;DHT22;30583;48.714;9.386;2022-12-18T11:41:15;-3276.50;60.00
44851;DHT22;30583;48.714;9.386;2022-12-18T11:43:55;-3276.40;59.60
44851;DHT22;30583;48.714;9.386;2022-12-18T11:46:30;0.00;58.90
44851;DHT22;30583;48.714;9.386;2022-12-18T11:49:07;-3276.60;59.30
44851;DHT22;30583;48.714;9.386;2022-12-18T11:51:48;0.30;58.40
44851;DHT22;30583;48.714;9.386;2022-12-18T11:54:15;0.60;57.50
44851;DHT22;30583;48.714;9.386;2022-12-18T11:56:49;1.00;56.90
44851;DHT22;30583;48.714;9.386;2022-12-18T11:59:23;1.20;56.10
44851;DHT22;30583;48.714;9.386;2022-12-18T12:01:58;1.00;56.30
44851;DHT22;30583;48.714;9.386;2022-12-18T12:05:17;0.60;58.00
44851;DHT22;30583;48.714;9.386;2022-12-18T12:07:30;1.10;57.40
44851;DHT22;30583;48.714;9.386;2022-12-18T12:12:57;1.60;55.80
44851;DHT22;30583;48.714;9.386;2022-12-18T12:18:08;1.10;56.70
44851;DHT22;30583;48.714;9.386;2022-12-18T12:26:07;1.40;57.90
44851;DHT22;30583;48.714;9.386;2022-12-18T12:28:48;1.50;58.00
44851;DHT22;30583;48.714;9.386;2022-12-18T12:37:05;1.80;57.40
44851;DHT22;30583;48.714;9.386;2022-12-18T12:39:38;1.90;57.50
44851;DHT22;30583;48.714;9.386;2022-12-18T12:42:12;1.70;57.70
44851;DHT22;30583;48.714;9.386;2022-12-18T12:45:06;1.70;58.30
44851;DHT22;30583;48.714;9.386;2022-12-18T12:47:41;1.70;57.90
44851;DHT22;30583;48.714;9.386;2022-12-18T12:50:14;1.50;58.20
44851;DHT22;30583;48.714;9.386;2022-12-18T12:52:46;1.40;59.10
44851;DHT22;30583;48.714;9.386;2022-12-18T12:55:27;1.50;59.50
44851;DHT22;30583;48.714;9.386;2022-12-18T13:01:27;1.50;59.60
44851;DHT22;30583;48.714;9.386;2022-12-18T13:06:59;1.20;60.80
44851;DHT22;30583;48.714;9.386;2022-12-18T13:09:30;1.80;59.50
44851;DHT22;30583;48.714;9.386;2022-12-18T13:12:02;1.40;60.50
44851;DHT22;30583;48.714;9.386;2022-12-18T13:14:46;1.70;59.70
44851;DHT22;30583;48.714;9.386;2022-12-18T13:22:34;1.80;60.60
44851;DHT22;30583;48.714;9.386;2022-12-18T13:25:00;1.50;61.30
44851;DHT22;30583;48.714;9.386;2022-12-18T13:35:51;1.60;62.10
44851;DHT22;30583;48.714;9.386;2022-12-18T13:38:36;1.70;61.70
44851;DHT22;30583;48.714;9.386;2022-12-18T13:43:46;1.80;61.40
44851;DHT22;30583;48.714;9.386;2022-12-18T13:46:26;2.00;61.10
44851;DHT22;30583;48.714;9.386;2022-12-18T13:49:38;1.80;60.80
44851;DHT22;30583;48.714;9.386;2022-12-18T13:51:48;1.70;61.30
44851;DHT22;30583;48.714;9.386;2022-12-18T13:57:00;1.30;62.70
44851;DHT22;30583;48.714;9.386;2022-12-18T13:59:34;1.20;62.90
44851;DHT22;30583;48.714;9.386;2022-12-18T14:02:11;0.90;64.50
44851;DHT22;30583;48.714;9.386;2022-12-18T14:04:38;1.10;64.20
44851;DHT22;30583;48.714;9.386;2022-12-18T14:07:12;1.30;63.70
44851;DHT22;30583;48.714;9.386;2022-12-18T14:09:45;1.20;63.30
44851;DHT22;30583;48.714;9.386;2022-12-18T14:12:21;1.00;64.50
44851;DHT22;30583;48.714;9.386;2022-12-18T14:15:50;0.60;64.50
44851;DHT22;30583;48.714;9.386;2022-12-18T14:18:01;0.30;66.60
44851;DHT22;30583;48.714;9.386;2022-12-18T14:20:30;0.20;67.00
44851;DHT22;30583;48.714;9.386;2022-12-18T14:22:57;0.00;67.30
44851;DHT22;30583;48.714;9.386;2022-12-18T14:25:25;0.00;68.50
44851;DHT22;30583;48.714;9.386;2022-12-18T14:30:39;0.10;68.20
44851;DHT22;30583;48.714;9.386;2022-12-18T14:35:53;0.20;68.10
44851;DHT22;30583;48.714;9.386;2022-12-18T14:38:34;0.00;68.50
44851;DHT22;30583;48.714;9.386;2022-12-18T14:43:29;0.00;68.40
44851;DHT22;30583;48.714;9.386;2022-12-18T14:45:57;0.60;69.10
44851;DHT22;30583;48.714;9.386;2022-12-18T14:48:42;-3276.50;69.00
44851;DHT22;30583;48.714;9.386;2022-12-18T14:51:17;-3276.10;69.70
44851;DHT22;30583;48.714;9.386;2022-12-18T14:54:01;-3275.80;71.30
44851;DHT22;30583;48.714;9.386;2022-12-18T14:56:32;-3275.60;71.80
44851;DHT22;30583;48.714;9.386;2022-12-18T15:01:56;-3275.70;72.30
44851;DHT22;30583;48.714;9.386;2022-12-18T15:04:38;-3275.80;71.70
44851;DHT22;30583;48.714;9.386;2022-12-18T15:07:19;-3275.60;72.10
44851;DHT22;30583;48.714;9.386;2022-12-18T15:15:46;-3275.50;72.80
44851;DHT22;30583;48.714;9.386;2022-12-18T15:18:29;-3275.60;72.80
44851;DHT22;30583;48.714;9.386;2022-12-18T15:21:00;-3275.70;72.30
44851;DHT22;30583;48.714;9.386;2022-12-18T15:23:45;-3275.60;72.50
44851;DHT22;30583;48.714;9.386;2022-12-18T15:26:13;6.50;65.00
44851;DHT22;30583;48.714;9.386;2022-12-18T15:28:55;5.80;62.70
44851;DHT22;30583;48.714;9.386;2022-12-18T15:31:33;1.90;63.10
44851;DHT22;30583;48.714;9.386;2022-12-18T15:34:10;-3276.60;69.00
44851;DHT22;30583;48.714;9.386;2022-12-18T15:36:37;-3276.10;70.70
44851;DHT22;30583;48.714;9.386;2022-12-18T15:39:03;-3276.00;71.60
44851;DHT22;30583;48.714;9.386;2022-12-18T15:41:35;-3275.80;72.10
44851;DHT22;30583;48.714;9.386;2022-12-18T15:44:01;-3275.80;72.10
44851;DHT22;30583;48.714;9.386;2022-12-18T15:46:26;-3275.80;71.40
44851;DHT22;30583;48.714;9.386;2022-12-18T15:48:57;-3275.80;71.40
44851;DHT22;30583;48.714;9.386;2022-12-18T15:51:29;-3275.70;71.90
44851;DHT22;30583;48.714;9.386;2022-12-18T15:53:59;-3275.50;72.20
44851;DHT22;30583;48.714;9.386;2022-12-18T15:56:25;-3275.30;72.70
44851;DHT22;30583;48.714;9.386;2022-12-18T15:59:14;-3275.30;72.70
44851;DHT22;30583;48.714;9.386;2022-12-18T16:01:40;-3275.20;73.10
44851;DHT22;30583;48.714;9.386;2022-12-18T16:04:06;-3275.10;73.40
44851;DHT22;30583;48.714;9.386;2022-12-18T16:06:32;-3275.30;73.00
44851;DHT22;30583;48.714;9.386;2022-12-18T16:08:57;-3275.50;72.70
44851;DHT22;30583;48.714;9.386;2022-12-18T16:11:26;-3275.20;73.10
44851;DHT22;30583;48.714;9.386;2022-12-18T16:14:30;-3275.00;73.90
44851;DHT22;30583;48.714;9.386;2022-12-18T16:16:59;-3274.90;74.20
44851;DHT22;30583;48.714;9.386;2022-12-18T16:19:25;-3274.90;74.50
44851;DHT22;30583;48.714;9.386;2022-12-18T16:21:52;-3275.00;73.50
44851;DHT22;30583;48.714;9.386;2022-12-18T16:24:37;-3274.80;74.20
44851;DHT22;30583;48.714;9.386;2022-12-18T16:27:03;-3274.80;74.20
44851;DHT22;30583;48.714;9.386;2022-12-18T16:29:29;-3274.80;74.40
44851;DHT22;30583;48.714;9.386;2022-12-18T16:31:56;-3274.90;74.30
44851;DHT22;30583;48.714;9.386;2022-12-18T16:34:24;-3275.00;73.90
44851;DHT22;30583;48.714;9.386;2022-12-18T16:36:55;-3275.00;73.50
44851;DHT22;30583;48.714;9.386;2022-12-18T16:39:21;-3274.80;74.00
44851;DHT22;30583;48.714;9.386;2022-12-18T16:41:47;-3274.90;74.00
44851;DHT22;30583;48.714;9.386;2022-12-18T16:44:13;-3274.70;74.40
44851;DHT22;30583;48.714;9.386;2022-12-18T16:46:40;-3274.60;74.80
44851;DHT22;30583;48.714;9.386;2022-12-18T16:49:09;-3274.50;75.40
44851;DHT22;30583;48.714;9.386;2022-12-18T16:51:35;-3274.50;75.50
44851;DHT22;30583;48.714;9.386;2022-12-18T16:54:01;-3274.30;76.00
44851;DHT22;30583;48.714;9.386;2022-12-18T16:56:26;-3274.30;76.50
44851;DHT22;30583;48.714;9.386;2022-12-18T16:58:54;-3274.60;75.90
44851;DHT22;30583;48.714;9.386;2022-12-18T17:01:20;-3274.60;75.20